createdAt,value
2023-05-22T00:01:42.802Z,98732.84
2023-05-22T00:04:10.622Z,98750.78
2023-05-22T00:06:37.934Z,98747.16
2023-05-22T00:09:04.700Z,98753.19
2023-05-22T00:11:31.770Z,98738.47
2023-05-22T00:13:58.332Z,98745.34
2023-05-22T00:16:24.975Z,98737.38
2023-05-22T00:18:51.620Z,98740.88
2023-05-22T00:21:18.495Z,98738.34
2023-05-22T00:23:45.719Z,98735.69
2023-05-22T00:26:19.026Z,98737.50
2023-05-22T00:28:45.941Z,98724.97
2023-05-22T00:31:12.665Z,98733.16
2023-05-22T00:33:39.601Z,98723.63
2023-05-22T00:36:06.930Z,98724.28
2023-05-22T00:38:36.609Z,98736.63
2023-05-22T00:41:06.029Z,98739.28
2023-05-22T00:43:36.268Z,98733.16
2023-05-22T00:46:02.924Z,98733.97
2023-05-22T00:48:29.578Z,98725.56
2023-05-22T00:50:59.071Z,98723.50
2023-05-22T00:53:28.119Z,98717.59
2023-05-22T00:55:55.722Z,98722.06
2023-05-22T00:58:26.264Z,98724.59
2023-05-22T01:00:53.223Z,98718.31
2023-05-22T01:03:25.932Z,98721.94
2023-05-22T01:05:53.855Z,98720.09
2023-05-22T01:08:20.562Z,98723.75
2023-05-22T01:10:54.556Z,98707.59
2023-05-22T01:13:38.951Z,98708.34
2023-05-22T01:16:14.695Z,98721.09
2023-05-22T01:18:52.335Z,98630.13
2023-05-22T01:21:32.861Z,98719.41
2023-05-22T01:24:31.150Z,98694.69
2023-05-22T01:27:04.080Z,98711.44
2023-05-22T01:29:42.298Z,98708.91
2023-05-22T01:32:14.517Z,98708.91
2023-05-22T01:34:44.357Z,98707.22
2023-05-22T01:37:13.330Z,98713.38
2023-05-22T01:39:41.809Z,98708.91
2023-05-22T01:42:08.808Z,98710.72
2023-05-22T01:44:35.416Z,98708.06
2023-05-22T01:47:05.209Z,98712.53
2023-05-22T01:49:33.509Z,98707.22
2023-05-22T01:52:29.808Z,98711.69
2023-05-22T01:55:13.480Z,98711.81
2023-05-22T01:57:47.987Z,98704.81
2023-05-22T02:00:18.394Z,98699.78
2023-05-22T02:02:49.480Z,98708.34
2023-05-22T02:05:19.595Z,98709.16
2023-05-22T02:07:48.142Z,98708.44
2023-05-22T02:10:17.115Z,98690.47
2023-05-22T02:12:44.825Z,98704.94
2023-05-22T02:15:11.881Z,98707.59
2023-05-22T02:17:42.679Z,98697.94
2023-05-22T02:20:15.302Z,98695.34
2023-05-22T02:22:44.650Z,98708.56
2023-05-22T02:25:14.489Z,98708.56
2023-05-22T02:27:45.872Z,98707.84
2023-05-22T02:30:13.660Z,98700.88
2023-05-22T02:32:42.282Z,98708.69
2023-05-22T02:35:09.589Z,98698.91
2023-05-22T02:37:36.464Z,98700.72
2023-05-22T02:40:06.128Z,98702.53
2023-05-22T02:42:33.574Z,98671.94
2023-05-22T02:45:01.190Z,98699.88
2023-05-22T02:47:28.040Z,98692.91
2023-05-22T02:49:57.809Z,98677.13
2023-05-22T02:52:24.996Z,98695.56
2023-05-22T02:54:51.606Z,98692.19
2023-05-22T02:57:19.034Z,98691.22
2023-05-22T02:59:45.799Z,98694.69
2023-05-22T03:02:14.957Z,98689.38
2023-05-22T03:04:41.969Z,98687.69
2023-05-22T03:07:08.845Z,98681.31
2023-05-22T03:09:35.916Z,98689.53
2023-05-22T03:12:03.107Z,98688.69
2023-05-22T03:14:29.975Z,98689.53
2023-05-22T03:16:58.893Z,98671.06
2023-05-22T03:19:26.421Z,98697.47
2023-05-22T03:21:53.196Z,98694.00
2023-05-22T03:24:19.978Z,98691.34
2023-05-22T03:26:46.635Z,98690.47
2023-05-22T03:29:19.369Z,98694.00
2023-05-22T03:31:46.357Z,98694.00
2023-05-22T03:34:14.780Z,98687.69
2023-05-22T03:36:45.262Z,98686.03
2023-05-22T03:39:14.056Z,98700.13
2023-05-22T03:41:49.125Z,98692.19
2023-05-22T03:44:16.424Z,98684.19
2023-05-22T03:46:43.968Z,98690.34
2023-05-22T03:49:10.617Z,98698.31
2023-05-22T03:51:37.211Z,98698.31
2023-05-22T03:54:04.078Z,98693.88
2023-05-22T03:56:30.595Z,98704.50
2023-05-22T03:58:57.271Z,98700.00
2023-05-22T04:01:23.876Z,98696.38
2023-05-22T04:03:50.665Z,98698.06
2023-05-22T04:06:17.629Z,98694.56
2023-05-22T04:08:45.189Z,98700.72
2023-05-22T04:11:15.398Z,98696.25
2023-05-22T04:13:43.229Z,98704.22
2023-05-22T04:16:10.390Z,98687.69
2023-05-22T04:18:37.742Z,98690.34
2023-05-22T04:21:08.222Z,98695.28
2023-05-22T04:23:35.292Z,98692.31
2023-05-22T04:26:04.323Z,98703.13
2023-05-22T04:28:30.928Z,98702.16
2023-05-22T04:30:57.646Z,98679.25
2023-05-22T04:33:28.892Z,98698.41
2023-05-22T04:35:57.106Z,98690.44
2023-05-22T04:38:26.318Z,98675.28
2023-05-22T04:40:53.060Z,98685.97
2023-05-22T04:43:19.747Z,98686.66
2023-05-22T04:45:46.391Z,98687.53
2023-05-22T04:48:13.643Z,98691.00
2023-05-22T04:50:40.693Z,98689.22
2023-05-22T04:53:07.500Z,98676.44
2023-05-22T04:55:34.434Z,98677.28
2023-05-22T04:58:01.614Z,98685.56
2023-05-22T05:00:29.345Z,98689.22
2023-05-22T05:02:57.506Z,98695.22
2023-05-22T05:05:24.866Z,98675.72
2023-05-22T05:07:51.992Z,98697.78
2023-05-22T05:10:19.716Z,98680.91
2023-05-22T05:12:46.489Z,98689.91
2023-05-22T05:15:13.561Z,98687.03
2023-05-22T05:17:40.251Z,98663.41
2023-05-22T05:20:08.803Z,98689.69
2023-05-22T05:22:35.950Z,98683.78
2023-05-22T05:25:05.469Z,98641.63
2023-05-22T05:27:32.459Z,98685.91
2023-05-22T05:29:59.636Z,98693.88
2023-05-22T05:32:36.752Z,98663.69
2023-05-22T05:35:20.715Z,98690.28
2023-05-22T05:38:01.693Z,98692.94
2023-05-22T05:40:29.889Z,98686.66
2023-05-22T05:42:56.465Z,98682.16
2023-05-22T05:45:26.213Z,98687.47
2023-05-22T05:47:53.182Z,98679.63
2023-05-22T05:50:20.336Z,98687.34
2023-05-22T05:52:47.918Z,98683.72
2023-05-22T05:55:17.128Z,98684.56
2023-05-22T05:59:58.273Z,98667.75
2023-05-22T06:02:43.786Z,98687.59
2023-05-22T06:05:24.522Z,98641.94
2023-05-22T06:07:59.354Z,98661.25
2023-05-22T06:10:26.490Z,98645.97
2023-05-22T06:13:00.176Z,98671.31
2023-05-22T06:15:27.314Z,98682.47
2023-05-22T06:17:55.235Z,98687.47
2023-05-22T06:20:22.300Z,98675.31
2023-05-22T06:22:49.208Z,98689.88
2023-05-22T06:25:15.925Z,98684.69
2023-05-22T06:27:42.725Z,98682.41
2023-05-22T06:30:09.678Z,98657.00
2023-05-22T06:32:39.261Z,98680.97
2023-05-22T06:35:08.015Z,98678.31
2023-05-22T06:37:35.813Z,98682.91
2023-05-22T06:40:03.740Z,98675.22
2023-05-22T06:42:46.620Z,98682.31
2023-05-22T06:45:22.249Z,98675.22
2023-05-22T06:48:20.061Z,98678.56
2023-05-22T06:51:12.645Z,98671.47
2023-05-22T06:53:40.775Z,98679.28
2023-05-22T06:56:12.774Z,98681.94
2023-05-22T06:58:54.363Z,98671.47
2023-05-22T07:01:24.537Z,98674.44
2023-05-22T07:04:09.001Z,98676.13
2023-05-22T07:06:41.730Z,98672.53
2023-05-22T07:09:11.767Z,98667.22
2023-05-22T07:11:38.443Z,98663.13
2023-05-22T07:14:05.097Z,98669.16
2023-05-22T07:16:31.874Z,98675.31
2023-05-22T07:18:59.017Z,98671.78
2023-05-22T07:21:26.132Z,98670.09
2023-05-22T07:23:53.694Z,98676.41
2023-05-22T07:26:22.477Z,98667.72
2023-05-22T07:28:57.882Z,98647.59
2023-05-22T07:31:26.857Z,98673.16
2023-05-22T07:33:55.207Z,98662.31
2023-05-22T07:36:22.500Z,98669.91
2023-05-22T07:38:49.144Z,98680.38
2023-05-22T07:41:15.985Z,98661.81
2023-05-22T07:43:42.867Z,98671.19
2023-05-22T07:46:11.846Z,98670.09
2023-05-22T07:48:51.647Z,98651.47
2023-05-22T07:51:18.412Z,98664.09
2023-05-22T07:53:49.345Z,98661.81
2023-05-22T07:56:17.660Z,98672.41
2023-05-22T07:58:48.272Z,98675.91
2023-05-22T08:01:18.578Z,98667.47
2023-05-22T08:03:45.383Z,98665.69
2023-05-22T08:06:12.496Z,98674.72
2023-05-22T08:08:39.269Z,98669.44
2023-05-22T08:11:06.086Z,98670.84
2023-05-22T08:13:33.130Z,98677.84
2023-05-22T08:16:02.729Z,98676.03
2023-05-22T08:18:29.913Z,98655.03
2023-05-22T08:20:57.007Z,98666.28
2023-05-22T08:23:23.799Z,98651.81
2023-05-22T08:25:50.378Z,98670.03
2023-05-22T08:28:17.209Z,98664.34
2023-05-22T08:30:44.072Z,98668.91
2023-05-22T08:33:12.013Z,98666.38
2023-05-22T08:35:39.023Z,98654.56
2023-05-22T08:38:05.753Z,98670.63
2023-05-22T08:40:37.762Z,98655.66
2023-05-22T08:43:06.107Z,98622.91
2023-05-22T08:45:36.975Z,98664.34
2023-05-22T08:48:05.914Z,98669.53
2023-05-22T08:50:34.731Z,98656.38
2023-05-22T08:53:04.400Z,98669.03
2023-05-22T08:55:31.246Z,98654.91
2023-05-22T08:58:00.037Z,98650.47
2023-05-22T09:00:26.702Z,98664.81
2023-05-22T09:02:53.837Z,98657.13
2023-05-22T09:05:21.406Z,98657.59
2023-05-22T09:07:48.878Z,98658.41
2023-05-22T09:10:15.524Z,98646.00
2023-05-22T09:13:07.869Z,98654.06
2023-05-22T09:15:36.256Z,98643.94
2023-05-22T09:18:04.145Z,98650.59
2023-05-22T09:20:39.142Z,98653.88
2023-05-22T09:23:17.921Z,98653.88
2023-05-22T09:25:46.457Z,98659.03
2023-05-22T09:28:13.298Z,98651.09
2023-05-22T09:30:43.265Z,98652.28
2023-05-22T09:33:12.823Z,98651.78
2023-05-22T09:35:39.768Z,98645.84
2023-05-22T09:38:06.574Z,98647.06
2023-05-22T09:40:34.959Z,98646.56
2023-05-22T09:43:06.589Z,98644.25
2023-05-22T09:45:35.915Z,98641.09
2023-05-22T09:48:03.993Z,98632.72
2023-05-22T09:50:30.763Z,98631.63
2023-05-22T09:53:01.477Z,98633.78
2023-05-22T09:55:28.635Z,98622.91
2023-05-22T09:57:56.329Z,98632.31
2023-05-22T10:00:24.163Z,98632.09
2023-05-22T10:03:04.131Z,98623.88
2023-05-22T10:05:32.079Z,98624.44
2023-05-22T10:08:09.090Z,98641.94
2023-05-22T10:10:37.046Z,98626.88
2023-05-22T10:13:06.377Z,98631.91
2023-05-22T10:15:33.268Z,98620.06
2023-05-22T10:18:01.538Z,98619.94
2023-05-22T10:20:29.906Z,98624.97
2023-05-22T10:22:56.885Z,98618.59
2023-05-22T10:25:23.568Z,98620.16
2023-05-22T10:27:53.695Z,98614.69
2023-05-22T10:30:26.208Z,98610.94
2023-05-22T10:33:29.988Z,98616.09
2023-05-22T10:36:10.328Z,98617.66
2023-05-22T10:38:51.923Z,98618.53
2023-05-22T10:41:18.958Z,98615.72
2023-05-22T10:43:49.116Z,98611.13
2023-05-22T10:46:15.951Z,98622.44
2023-05-22T10:48:52.812Z,98612.53
2023-05-22T10:51:21.965Z,98586.63
2023-05-22T10:53:53.378Z,98599.84
2023-05-22T10:56:21.305Z,98609.38
2023-05-22T10:58:57.607Z,98597.75
2023-05-22T11:01:27.205Z,98601.97
2023-05-22T11:04:06.985Z,98592.16
2023-05-22T11:07:13.199Z,98603.66
2023-05-22T11:09:45.928Z,98600.66
2023-05-22T11:12:18.289Z,98589.00
2023-05-22T11:15:00.141Z,98578.91
2023-05-22T11:17:29.204Z,98583.78
2023-05-22T11:20:05.682Z,98583.47
2023-05-22T11:22:33.820Z,98586.13
2023-05-22T11:25:03.099Z,98579.81
2023-05-22T11:27:30.082Z,98559.94
2023-05-22T11:29:56.857Z,98568.63
2023-05-22T11:32:24.300Z,98569.47
2023-05-22T11:34:55.263Z,98566.94
2023-05-22T11:37:22.494Z,98572.69
2023-05-22T11:39:56.541Z,98568.22
2023-05-22T11:42:24.193Z,98570.19
2023-05-22T11:44:51.097Z,98570.56
2023-05-22T11:47:17.836Z,98570.72
2023-05-22T11:49:44.447Z,98565.78
2023-05-22T11:52:16.729Z,98570.13
2023-05-22T11:54:48.087Z,98577.00
2023-05-22T11:57:15.418Z,98566.81
2023-05-22T11:59:48.165Z,98564.47
2023-05-22T12:02:16.993Z,98562.97
2023-05-22T12:04:43.530Z,98570.56
2023-05-22T12:07:10.581Z,98564.72
2023-05-22T12:09:40.754Z,98563.47
2023-05-22T12:12:09.949Z,98559.59
2023-05-22T12:14:36.541Z,98560.28
2023-05-22T12:17:06.402Z,98566.88
2023-05-22T12:19:33.153Z,98558.78
2023-05-22T12:22:04.945Z,98562.00
2023-05-22T12:24:41.770Z,98553.78
2023-05-22T12:27:10.310Z,98558.16
2023-05-22T12:29:38.074Z,98544.13
2023-05-22T12:32:09.093Z,98555.06
2023-05-22T12:34:42.060Z,98539.28
2023-05-22T12:37:28.367Z,98534.53
2023-05-22T12:40:00.035Z,98535.81
2023-05-22T12:42:27.499Z,98534.00
2023-05-22T12:44:55.624Z,98535.53
2023-05-22T12:47:23.854Z,98531.91
2023-05-22T12:49:53.657Z,98535.28
2023-05-22T12:52:20.372Z,98529.81
2023-05-22T12:54:47.075Z,98507.69
2023-05-22T12:57:13.890Z,98507.25
2023-05-22T12:59:40.820Z,98522.41
2023-05-22T13:02:08.044Z,98524.91
2023-05-22T13:04:34.645Z,98525.06
2023-05-22T13:07:01.494Z,98529.09
2023-05-22T13:09:28.431Z,98524.59
2023-05-22T13:11:55.409Z,98508.84
2023-05-22T13:14:22.064Z,98517.69
2023-05-22T13:16:48.740Z,98510.53
2023-05-22T13:19:15.472Z,98510.31
2023-05-22T13:21:42.926Z,98507.22
2023-05-22T13:24:09.666Z,98506.81
2023-05-22T13:26:36.466Z,98507.41
2023-05-22T13:29:03.078Z,98506.28
2023-05-22T13:31:31.408Z,98498.88
2023-05-22T13:33:58.005Z,98503.06
2023-05-22T13:36:24.611Z,98492.28
2023-05-22T13:38:51.383Z,98498.19
2023-05-22T13:41:18.082Z,98492.75
2023-05-22T13:43:44.665Z,98491.63
2023-05-22T13:46:13.957Z,98489.66
2023-05-22T13:48:40.714Z,98485.03
2023-05-22T13:51:07.371Z,98487.56
2023-05-22T13:53:34.005Z,98496.25
2023-05-22T13:56:01.909Z,98475.69
2023-05-22T13:58:28.445Z,98473.16
2023-05-22T14:00:55.116Z,98486.03
2023-05-22T14:03:21.741Z,98486.91
2023-05-22T14:05:48.376Z,98477.09
2023-05-22T14:08:14.957Z,98475.97
2023-05-22T14:10:42.075Z,98473.16
2023-05-22T14:13:08.747Z,98474.69
2023-05-22T14:15:35.742Z,98472.03
2023-05-22T14:18:02.308Z,98471.91
2023-05-22T14:20:29.002Z,98469.13
2023-05-22T14:22:57.788Z,98456.38
2023-05-22T14:25:28.053Z,98468.69
2023-05-22T14:27:54.706Z,98463.53
2023-05-22T14:30:21.432Z,98457.34
2023-05-22T14:32:48.613Z,98451.75
2023-05-22T14:35:16.656Z,98458.72
2023-05-22T14:37:43.924Z,98459.59
2023-05-22T14:40:10.894Z,98459.75
2023-05-22T14:42:37.903Z,98449.34
2023-05-22T14:45:05.116Z,98449.50
2023-05-22T14:47:32.084Z,98427.91
2023-05-22T14:50:06.671Z,98443.63
2023-05-22T14:52:44.816Z,98441.50
2023-05-22T14:55:11.473Z,98447.56
2023-05-22T14:57:38.201Z,98417.97
2023-05-22T15:00:11.864Z,98446.00
2023-05-22T15:02:38.554Z,98440.69
2023-05-22T15:05:06.946Z,98443.47
2023-05-22T15:10:03.516Z,98385.78
2023-05-22T15:12:30.253Z,98437.03
2023-05-22T15:14:59.872Z,98437.72
2023-05-22T15:17:26.627Z,98434.94
2023-05-22T15:19:53.370Z,98374.84
2023-05-22T15:22:22.854Z,98426.84
2023-05-22T15:25:03.574Z,98428.47
2023-05-22T15:27:30.402Z,98433.81
2023-05-22T15:29:57.700Z,98429.34
2023-05-22T15:32:24.471Z,98429.19
2023-05-22T15:34:53.636Z,98419.13
2023-05-22T15:37:20.317Z,98408.06
2023-05-22T15:39:46.885Z,98421.50
2023-05-22T15:42:13.515Z,98422.91
2023-05-22T15:44:41.155Z,98417.44
2023-05-22T15:47:07.789Z,98404.69
2023-05-22T15:49:34.423Z,98416.72
2023-05-22T15:52:01.027Z,98407.09
2023-05-22T15:54:27.606Z,98399.78
2023-05-22T15:56:54.260Z,98410.56
2023-05-22T15:59:21.152Z,98410.72
2023-05-22T16:01:47.743Z,98382.28
2023-05-22T16:04:14.377Z,98414.06
2023-05-22T16:06:41.361Z,98404.13
2023-05-22T16:09:08.084Z,98403.97
2023-05-22T16:11:34.860Z,98408.75
2023-05-22T16:14:01.478Z,98411.41
2023-05-22T16:16:28.181Z,98407.91
2023-05-22T16:18:54.819Z,98419.38
2023-05-22T16:21:21.645Z,98412.25
2023-05-22T16:23:48.185Z,98396.00
2023-05-22T16:26:14.970Z,98345.03
2023-05-22T16:28:41.536Z,98393.22
2023-05-22T16:31:08.182Z,98398.66
2023-05-22T16:33:36.361Z,98405.25
2023-05-22T16:36:04.004Z,98369.84
2023-05-22T16:38:33.506Z,98404.44
2023-05-22T16:41:00.200Z,98404.44
2023-05-22T16:43:26.889Z,98400.09
2023-05-22T16:45:53.551Z,98407.91
2023-05-22T16:48:20.350Z,98407.19
2023-05-22T16:50:47.134Z,98390.25
2023-05-22T16:53:16.671Z,98408.88
2023-05-22T16:55:43.913Z,98396.28
2023-05-22T16:58:11.672Z,98390.16
2023-05-22T17:00:40.015Z,98381.03
2023-05-22T17:03:08.244Z,98392.09
2023-05-22T17:05:35.852Z,98400.66
2023-05-22T17:08:03.012Z,98409.88
2023-05-22T17:10:30.061Z,98409.88
2023-05-22T17:12:56.718Z,98416.03
2023-05-22T17:15:23.506Z,98411.00
2023-05-22T17:17:53.477Z,98401.88
2023-05-22T17:20:22.803Z,98418.72
2023-05-22T17:22:49.547Z,98352.44
2023-05-22T17:25:16.365Z,98406.78
2023-05-22T17:27:42.959Z,98411.69
2023-05-22T17:30:09.997Z,98409.88
2023-05-22T17:32:36.786Z,98409.88
2023-05-22T17:35:05.971Z,98412.41
2023-05-22T17:37:32.526Z,98409.31
2023-05-22T17:39:59.259Z,98403.00
2023-05-22T17:42:25.873Z,98405.56
2023-05-22T17:44:52.538Z,98403.00
2023-05-22T17:47:19.070Z,98400.09
2023-05-22T17:49:45.856Z,98408.06
2023-05-22T17:52:13.361Z,98409.59
2023-05-22T17:54:40.021Z,98397.28
2023-05-22T17:57:06.605Z,98405.25
2023-05-22T17:59:33.294Z,98405.25
2023-05-22T18:02:02.693Z,98405.25
2023-05-22T18:04:29.483Z,98360.19
2023-05-22T18:06:56.045Z,98403.56
2023-05-22T18:09:22.690Z,98405.41
2023-05-22T18:11:52.304Z,98407.19
2023-05-22T18:14:19.540Z,98386.38
2023-05-22T18:16:46.118Z,98407.34
2023-05-22T18:19:12.823Z,98403.88
2023-05-22T18:21:41.728Z,98400.34
2023-05-22T18:24:08.442Z,98393.22
2023-05-22T18:26:35.010Z,98406.66
2023-05-22T18:29:01.568Z,98395.03
2023-05-22T18:33:45.164Z,98396.16
2023-05-22T18:36:12.590Z,98392.09
2023-05-22T18:38:41.264Z,98391.81
2023-05-22T18:41:07.980Z,98399.94
2023-05-22T18:43:34.649Z,98393.91
2023-05-22T18:46:04.358Z,98395.59
2023-05-22T18:48:31.062Z,98348.00
2023-05-22T18:50:59.143Z,98338.44
2023-05-22T18:53:26.077Z,98389.59
2023-05-22T18:55:54.117Z,98396.72
2023-05-22T18:58:21.069Z,98395.03
2023-05-22T19:00:47.863Z,98387.19
2023-05-22T19:03:14.557Z,98374.75
2023-05-22T19:05:41.434Z,98382.16
2023-05-22T19:08:07.991Z,98383.00
2023-05-22T19:10:34.663Z,98392.81
2023-05-22T19:13:01.280Z,98397.25
2023-05-22T19:15:28.060Z,98368.84
2023-05-22T19:17:54.756Z,98386.47
2023-05-22T19:20:22.946Z,98400.47
2023-05-22T19:22:50.953Z,98384.09
2023-05-22T19:25:18.009Z,98401.34
2023-05-22T19:27:44.713Z,98398.69
2023-05-22T19:30:18.903Z,98397.81
2023-05-22T19:32:45.725Z,98374.28
2023-05-22T19:35:12.332Z,98385.91
2023-05-22T19:37:39.082Z,98394.75
2023-05-22T19:40:06.903Z,98392.78
2023-05-22T19:42:33.745Z,98389.28
2023-05-22T19:45:02.275Z,98394.59
2023-05-22T19:47:29.025Z,98390.25
2023-05-22T19:49:55.796Z,98390.53
2023-05-22T19:52:22.821Z,98390.41
2023-05-22T19:54:49.442Z,98392.22
2023-05-22T19:57:16.040Z,98381.28
2023-05-22T19:59:42.980Z,98390.81
2023-05-22T20:02:09.911Z,98400.31
2023-05-22T20:04:38.965Z,98389.13
2023-05-22T20:07:07.253Z,98390.81
2023-05-22T20:09:33.880Z,98396.13
2023-05-22T20:12:00.610Z,98354.78
2023-05-22T20:14:27.407Z,98394.31
2023-05-22T20:16:54.504Z,98387.47
2023-05-22T20:19:23.710Z,98386.59
2023-05-22T20:21:50.932Z,98389.25
2023-05-22T20:24:20.585Z,98387.56
2023-05-22T20:26:47.776Z,98384.09
2023-05-22T20:29:14.781Z,98374.44
2023-05-22T20:31:41.736Z,98374.72
2023-05-22T20:34:09.548Z,98384.25
2023-05-22T20:36:36.498Z,98365.44
2023-05-22T20:39:03.434Z,98367.81
2023-05-22T20:41:30.147Z,98372.91
2023-05-22T20:43:58.625Z,98373.88
2023-05-22T20:46:26.813Z,98368.94
2023-05-22T20:48:54.198Z,98374.72
2023-05-22T20:51:21.264Z,98370.47
2023-05-22T20:53:48.586Z,98365.84
2023-05-22T20:56:15.547Z,98376.63
2023-05-22T20:58:42.580Z,98364.31
2023-05-22T21:01:09.626Z,98381.09
2023-05-22T21:03:39.209Z,98373.25
2023-05-22T21:06:06.254Z,98381.25
2023-05-22T21:08:32.792Z,98377.75
2023-05-22T21:10:59.496Z,98364.03
2023-05-22T21:13:26.129Z,98376.91
2023-05-22T21:15:52.719Z,98372.59
2023-05-22T21:18:19.910Z,98377.03
2023-05-22T21:20:46.868Z,98377.91
2023-05-22T21:23:13.560Z,98368.66
2023-05-22T21:25:40.263Z,98354.38
2023-05-22T21:28:07.869Z,98337.00
2023-05-22T21:30:34.656Z,98373.66
2023-05-22T21:35:25.505Z,98371.16
2023-05-22T21:37:53.143Z,98361.22
2023-05-22T21:40:20.924Z,98376.63
2023-05-22T21:42:47.695Z,98370.59
2023-05-22T21:45:14.408Z,98377.59
2023-05-22T21:47:41.606Z,98377.59
2023-05-22T21:50:08.783Z,98375.09
2023-05-22T21:52:35.787Z,98320.19
2023-05-22T21:55:02.508Z,98368.91
2023-05-22T21:57:29.548Z,98369.06
2023-05-22T21:59:56.065Z,98368.06
2023-05-22T22:02:22.749Z,98373.41
2023-05-22T22:04:49.542Z,98335.03
2023-05-22T22:07:16.469Z,98342.19
2023-05-22T22:09:43.036Z,98367.38
2023-05-22T22:12:11.970Z,98347.19
2023-05-22T22:14:38.552Z,98366.53
2023-05-22T22:17:05.927Z,98370.16
2023-05-22T22:19:34.398Z,98355.50
2023-05-22T22:22:01.637Z,98358.72
2023-05-22T22:24:29.574Z,98358.97
2023-05-22T22:26:56.696Z,98360.50
2023-05-22T22:29:23.273Z,98357.84
2023-05-22T22:31:49.953Z,98359.69
2023-05-22T22:34:16.665Z,98365.81
2023-05-22T22:36:43.269Z,98351.84
2023-05-22T22:39:10.654Z,98354.50
2023-05-22T22:41:37.348Z,98356.16
2023-05-22T22:44:04.063Z,98357.03
2023-05-22T22:46:33.786Z,98347.38
2023-05-22T22:49:01.886Z,98353.50
2023-05-22T22:51:31.589Z,98350.03
2023-05-22T22:53:58.403Z,98353.66
2023-05-22T22:56:29.245Z,98352.81
2023-05-22T22:58:57.056Z,98354.50
2023-05-22T23:01:24.388Z,98346.81
2023-05-22T23:03:51.529Z,98319.78
2023-05-22T23:06:18.417Z,98350.16
2023-05-22T23:08:45.678Z,98348.47
2023-05-22T23:11:12.427Z,98340.50
2023-05-22T23:13:43.052Z,98344.97
2023-05-22T23:16:09.727Z,98340.66
2023-05-22T23:18:36.326Z,98333.66
2023-05-22T23:21:02.979Z,98327.47
2023-05-22T23:23:29.540Z,98328.34
2023-05-22T23:25:58.869Z,98314.19
2023-05-22T23:28:25.894Z,98331.00
2023-05-22T23:30:52.857Z,98324.72
2023-05-22T23:33:19.619Z,98320.53
2023-05-22T23:35:46.203Z,98311.41
2023-05-22T23:38:12.781Z,98318.69
2023-05-22T23:40:42.168Z,98308.47
2023-05-22T23:43:08.771Z,98310.00
2023-05-22T23:45:35.459Z,98309.19
2023-05-22T23:48:02.238Z,98309.19
2023-05-22T23:50:28.776Z,98290.72
2023-05-22T23:52:55.509Z,98304.69
2023-05-22T23:55:22.083Z,98298.69
2023-05-22T23:57:48.820Z,98303.88
